createdAt,value
2022-08-02T00:01:42.800Z,21.35
2022-08-02T00:04:16.506Z,21.41
2022-08-02T00:06:50.182Z,21.46
2022-08-02T00:09:23.875Z,21.49
2022-08-02T00:11:57.574Z,21.50
2022-08-02T00:14:31.324Z,21.51
2022-08-02T00:17:06.554Z,21.50
2022-08-02T00:19:40.176Z,21.49
2022-08-02T00:22:13.995Z,21.49
2022-08-02T00:24:47.962Z,21.47
2022-08-02T00:27:21.617Z,21.44
2022-08-02T00:29:55.592Z,21.40
2022-08-02T00:32:30.750Z,21.36
2022-08-02T00:35:04.497Z,21.34
2022-08-02T00:37:40.925Z,21.32
2022-08-02T00:40:14.919Z,21.27
2022-08-02T00:42:48.584Z,21.25
2022-08-02T00:45:22.300Z,21.21
2022-08-02T00:48:17.473Z,21.16
2022-08-02T00:50:51.063Z,21.15
2022-08-02T00:53:24.866Z,21.14
2022-08-02T00:55:58.446Z,21.15
2022-08-02T00:58:32.566Z,21.16
2022-08-02T01:01:06.253Z,21.15
2022-08-02T01:03:41.355Z,21.15
2022-08-02T01:06:14.945Z,21.16
2022-08-02T01:08:48.584Z,21.19
2022-08-02T01:11:22.298Z,21.20
2022-08-02T01:13:58.248Z,21.22
2022-08-02T01:16:35.911Z,21.23
2022-08-02T01:19:36.628Z,21.28
2022-08-02T01:22:34.520Z,21.22
2022-08-02T01:25:30.364Z,21.21
2022-08-02T01:28:24.446Z,21.21
2022-08-02T01:31:02.507Z,21.17
2022-08-02T01:33:42.414Z,21.13
2022-08-02T01:36:20.267Z,21.11
2022-08-02T01:38:55.835Z,21.02
2022-08-02T01:41:33.651Z,20.98
2022-08-02T01:44:09.288Z,20.94
2022-08-02T01:46:44.362Z,20.91
2022-08-02T01:49:21.945Z,20.89
2022-08-02T01:52:13.674Z,20.88
2022-08-02T01:54:51.071Z,20.88
2022-08-02T01:57:26.006Z,20.88
2022-08-02T02:00:01.960Z,20.86
2022-08-02T02:02:40.333Z,20.84
2022-08-02T02:05:17.015Z,20.84
2022-08-02T02:07:52.593Z,20.83
2022-08-02T02:10:30.099Z,20.84
2022-08-02T02:13:06.843Z,20.85
2022-08-02T02:15:45.920Z,20.86
2022-08-02T02:18:25.263Z,20.88
2022-08-02T02:20:59.111Z,20.88
2022-08-02T02:23:35.648Z,20.86
2022-08-02T02:26:15.251Z,20.86
2022-08-02T02:28:54.151Z,20.84
2022-08-02T02:31:31.200Z,20.80
2022-08-02T02:34:10.617Z,20.77
2022-08-02T02:36:49.963Z,20.76
2022-08-02T02:39:26.179Z,20.73
2022-08-02T02:42:04.436Z,20.70
2022-08-02T02:44:40.394Z,20.66
2022-08-02T02:47:17.096Z,20.63
2022-08-02T02:49:52.800Z,20.61
2022-08-02T02:52:28.595Z,20.60
2022-08-02T02:55:03.515Z,20.60
2022-08-02T02:57:38.716Z,20.59
2022-08-02T03:00:15.514Z,20.59
2022-08-02T03:02:50.619Z,20.58
2022-08-02T03:05:24.285Z,20.56
2022-08-02T03:07:57.900Z,20.56
2022-08-02T03:10:32.053Z,20.55
2022-08-02T03:13:05.847Z,20.54
2022-08-02T03:15:43.947Z,20.53
2022-08-02T03:18:34.784Z,20.57
2022-08-02T03:21:10.009Z,20.54
2022-08-02T03:23:44.628Z,20.53
2022-08-02T03:26:18.714Z,20.54
2022-08-02T03:28:52.276Z,20.56
2022-08-02T03:31:25.813Z,20.60
2022-08-02T03:34:02.694Z,20.60
2022-08-02T03:36:37.814Z,20.61
2022-08-02T03:39:14.286Z,20.64
2022-08-02T03:41:49.859Z,20.70
2022-08-02T03:44:24.715Z,20.78
2022-08-02T03:46:59.503Z,20.84
2022-08-02T03:49:35.824Z,20.89
2022-08-02T03:52:10.315Z,20.98
2022-08-02T03:54:45.323Z,21.04
2022-08-02T03:57:19.643Z,21.11
2022-08-02T03:59:53.233Z,21.13
2022-08-02T04:02:26.843Z,21.15
2022-08-02T04:05:01.783Z,21.16
2022-08-02T04:08:32.737Z,21.20
2022-08-02T04:10:29.225Z,21.25
2022-08-02T04:13:02.742Z,21.29
2022-08-02T04:15:36.905Z,21.33
2022-08-02T04:18:10.770Z,21.39
2022-08-02T04:20:47.372Z,21.45
2022-08-02T04:23:22.900Z,21.50
2022-08-02T04:25:58.431Z,21.54
2022-08-02T04:28:32.908Z,21.58
2022-08-02T04:31:07.688Z,21.61
2022-08-02T04:33:41.782Z,21.65
2022-08-02T04:36:30.956Z,21.69
2022-08-02T04:39:05.597Z,21.77
2022-08-02T04:41:43.652Z,21.85
2022-08-02T04:44:17.756Z,21.98
2022-08-02T04:46:52.284Z,22.07
2022-08-02T04:49:25.968Z,22.19
2022-08-02T04:52:01.922Z,22.27
2022-08-02T04:54:35.643Z,22.36
2022-08-02T04:57:22.999Z,22.43
2022-08-02T04:59:58.273Z,22.48
2022-08-02T05:02:31.876Z,22.52
2022-08-02T05:05:10.156Z,22.57
2022-08-02T05:07:45.483Z,22.65
2022-08-02T05:10:19.252Z,22.67
2022-08-02T05:12:53.435Z,22.71
2022-08-02T05:15:31.537Z,22.72
2022-08-02T05:18:07.307Z,22.74
2022-08-02T05:20:40.877Z,22.76
2022-08-02T05:23:15.937Z,22.77
2022-08-02T05:25:49.458Z,22.80
2022-08-02T05:28:23.414Z,22.83
2022-08-02T05:30:57.027Z,22.87
2022-08-02T05:33:30.659Z,22.89
2022-08-02T05:36:04.367Z,22.89
2022-08-02T05:38:39.549Z,22.88
2022-08-02T05:41:13.254Z,22.88
2022-08-02T05:43:46.940Z,22.85
2022-08-02T05:46:20.576Z,22.83
2022-08-02T05:48:54.204Z,22.79
2022-08-02T05:51:37.486Z,22.74
2022-08-02T05:54:21.021Z,22.71
2022-08-02T05:56:57.698Z,22.80
2022-08-02T05:59:36.546Z,22.68
2022-08-02T06:02:30.215Z,22.68
2022-08-02T06:05:06.767Z,22.67
2022-08-02T06:07:43.517Z,22.67
2022-08-02T06:10:22.026Z,22.66
2022-08-02T06:13:06.972Z,22.66
2022-08-02T06:15:52.066Z,22.66
2022-08-02T06:18:29.237Z,22.65
2022-08-02T06:22:33.088Z,22.64
2022-08-02T06:23:59.932Z,22.65
2022-08-02T06:26:36.035Z,22.64
2022-08-02T06:29:10.082Z,22.66
2022-08-02T06:31:45.197Z,22.67
2022-08-02T06:34:18.991Z,22.70
2022-08-02T06:37:01.438Z,22.76
2022-08-02T06:39:45.105Z,22.88
2022-08-02T06:42:27.671Z,22.97
2022-08-02T06:45:03.127Z,23.10
2022-08-02T06:47:36.717Z,23.26
2022-08-02T06:50:11.214Z,23.44
2022-08-02T06:52:44.892Z,23.68
2022-08-02T06:55:18.808Z,23.91
2022-08-02T06:57:53.948Z,24.17
2022-08-02T07:00:28.741Z,24.44
2022-08-02T07:03:02.998Z,24.68
2022-08-02T07:05:36.787Z,24.92
2022-08-02T07:08:10.446Z,25.15
2022-08-02T07:10:44.287Z,25.38
2022-08-02T07:13:19.535Z,25.64
2022-08-02T07:15:53.498Z,25.90
2022-08-02T07:18:27.309Z,26.20
2022-08-02T07:21:00.954Z,26.55
2022-08-02T07:23:35.018Z,26.90
2022-08-02T07:26:08.682Z,27.16
2022-08-02T07:28:43.738Z,27.36
2022-08-02T07:31:17.458Z,27.52
2022-08-02T07:33:51.087Z,27.65
2022-08-02T07:36:24.951Z,27.76
2022-08-02T07:38:59.357Z,27.81
2022-08-02T07:41:32.998Z,27.86
2022-08-02T07:44:08.279Z,27.97
2022-08-02T07:46:42.464Z,28.20
2022-08-02T07:49:18.866Z,28.47
2022-08-02T07:51:52.717Z,28.63
2022-08-02T07:54:26.573Z,28.81
2022-08-02T07:57:01.325Z,29.03
2022-08-02T07:59:36.505Z,29.24
2022-08-02T08:02:10.435Z,29.47
2022-08-02T08:04:44.306Z,29.62
2022-08-02T08:07:17.948Z,29.79
2022-08-02T08:09:56.453Z,30.00
2022-08-02T08:12:30.299Z,30.22
2022-08-02T08:15:06.438Z,30.51
2022-08-02T08:17:40.353Z,30.85
2022-08-02T08:20:16.165Z,31.15
2022-08-02T08:22:50.315Z,31.44
2022-08-02T08:25:24.133Z,31.64
2022-08-02T08:28:01.035Z,31.85
2022-08-02T08:30:36.065Z,32.16
2022-08-02T08:33:09.983Z,32.41
2022-08-02T08:35:43.975Z,32.69
2022-08-02T08:38:17.791Z,32.75
2022-08-02T08:40:51.448Z,32.66
2022-08-02T08:43:25.163Z,32.51
2022-08-02T08:46:00.269Z,32.22
2022-08-02T08:48:39.021Z,31.93
2022-08-02T08:51:16.737Z,31.62
2022-08-02T08:53:52.290Z,31.27
2022-08-02T08:56:30.945Z,30.96
2022-08-02T08:59:06.803Z,30.67
2022-08-02T09:01:49.728Z,30.45
2022-08-02T09:04:24.590Z,30.23
2022-08-02T09:06:58.278Z,30.05
2022-08-02T09:09:31.957Z,29.94
2022-08-02T09:12:16.108Z,29.87
2022-08-02T09:14:50.325Z,29.79
2022-08-02T09:17:26.535Z,30.99
2022-08-02T09:20:10.507Z,33.16
2022-08-02T09:22:44.210Z,34.29
2022-08-02T09:25:18.137Z,33.83
2022-08-02T09:27:52.001Z,32.82
2022-08-02T09:30:28.162Z,32.69
2022-08-02T09:33:05.653Z,33.63
2022-08-02T09:36:06.503Z,32.78
2022-08-02T09:38:37.072Z,31.58
2022-08-02T09:41:22.933Z,30.57
2022-08-02T09:44:04.659Z,29.66
2022-08-02T09:46:41.636Z,28.83
2022-08-02T09:49:18.523Z,28.19
2022-08-02T09:51:53.577Z,27.73
2022-08-02T09:54:29.328Z,27.31
2022-08-02T09:57:03.765Z,26.97
2022-08-02T09:59:37.758Z,26.67
2022-08-02T10:02:17.008Z,26.42
2022-08-02T10:04:54.291Z,26.18
2022-08-02T10:07:28.397Z,26.00
2022-08-02T10:10:02.513Z,25.86
2022-08-02T10:12:38.022Z,25.75
2022-08-02T10:15:13.096Z,25.61
2022-08-02T10:17:48.152Z,25.51
2022-08-02T10:20:23.973Z,25.44
2022-08-02T10:23:00.131Z,25.33
2022-08-02T10:25:35.461Z,25.25
2022-08-02T10:28:16.595Z,25.13
2022-08-02T10:30:51.414Z,25.06
2022-08-02T10:33:27.666Z,25.00
2022-08-02T10:36:04.486Z,24.96
2022-08-02T10:38:41.848Z,24.91
2022-08-02T10:41:15.650Z,24.88
2022-08-02T10:43:50.474Z,24.89
2022-08-02T10:46:33.701Z,24.93
2022-08-02T10:52:11.215Z,25.11
2022-08-02T10:54:49.609Z,25.19
2022-08-02T10:57:27.853Z,25.41
2022-08-02T11:00:11.190Z,25.75
2022-08-02T11:02:46.940Z,26.49
2022-08-02T11:05:28.954Z,27.07
2022-08-02T11:08:25.221Z,27.65
2022-08-02T11:11:01.449Z,28.04
2022-08-02T11:14:01.247Z,28.48
2022-08-02T11:17:10.147Z,28.83
2022-08-02T11:20:21.911Z,28.95
2022-08-02T11:22:56.731Z,28.91
2022-08-02T11:26:02.151Z,28.77
2022-08-02T11:28:29.052Z,28.54
2022-08-02T11:31:03.428Z,28.29
2022-08-02T11:33:37.511Z,28.02
2022-08-02T11:36:11.042Z,27.73
2022-08-02T11:38:44.739Z,27.43
2022-08-02T11:41:46.881Z,27.13
2022-08-02T11:44:16.203Z,26.81
2022-08-02T11:47:00.305Z,26.57
2022-08-02T11:49:34.049Z,26.31
2022-08-02T11:52:11.716Z,26.05
2022-08-02T11:54:45.734Z,25.88
2022-08-02T11:57:22.672Z,25.73
2022-08-02T11:59:57.861Z,25.58
2022-08-02T12:02:34.026Z,25.48
2022-08-02T12:05:09.331Z,25.43
2022-08-02T12:07:45.562Z,25.43
2022-08-02T12:10:21.250Z,25.44
2022-08-02T12:12:57.987Z,25.49
2022-08-02T12:15:37.472Z,25.54
2022-08-02T12:18:29.670Z,25.64
2022-08-02T12:21:03.634Z,25.81
2022-08-02T12:24:00.638Z,26.07
2022-08-02T12:26:43.664Z,26.48
2022-08-02T12:29:57.653Z,26.90
2022-08-02T12:32:25.986Z,27.48
2022-08-02T12:35:04.437Z,27.82
2022-08-02T12:37:39.369Z,27.96
2022-08-02T12:40:27.435Z,28.17
2022-08-02T12:43:02.799Z,28.27
2022-08-02T12:45:50.387Z,28.32
2022-08-02T12:48:38.345Z,28.43
2022-08-02T12:51:56.548Z,28.62
2022-08-02T12:54:40.360Z,28.81
2022-08-02T12:57:15.433Z,28.84
2022-08-02T12:59:53.238Z,28.78
2022-08-02T13:02:28.466Z,28.71
2022-08-02T13:05:02.159Z,28.60
2022-08-02T13:07:36.255Z,28.48
2022-08-02T13:10:10.883Z,28.42
2022-08-02T13:12:44.634Z,28.39
2022-08-02T13:15:49.031Z,28.25
2022-08-02T13:18:14.569Z,28.16
2022-08-02T13:20:48.458Z,28.10
2022-08-02T13:23:22.297Z,27.99
2022-08-02T13:25:56.056Z,27.88
2022-08-02T13:28:29.828Z,27.94
2022-08-02T13:31:20.844Z,28.06
2022-08-02T13:33:58.500Z,28.16
2022-08-02T13:36:32.260Z,28.19
2022-08-02T13:39:06.571Z,28.20
2022-08-02T13:41:40.266Z,28.27
2022-08-02T13:44:13.954Z,28.32
2022-08-02T13:46:47.717Z,28.33
2022-08-02T13:49:50.658Z,28.38
2022-08-02T13:52:16.730Z,28.42
2022-08-02T13:54:50.510Z,28.45
2022-08-02T13:57:24.008Z,28.40
2022-08-02T13:59:59.280Z,28.35
2022-08-02T14:02:36.196Z,28.37
2022-08-02T14:05:14.968Z,28.31
2022-08-02T14:07:50.719Z,28.14
2022-08-02T14:10:26.099Z,27.95
2022-08-02T14:13:04.475Z,27.88
2022-08-02T14:15:38.405Z,27.90
2022-08-02T14:18:12.326Z,27.89
2022-08-02T14:20:47.618Z,27.88
2022-08-02T14:23:42.429Z,27.84
2022-08-02T14:26:26.835Z,27.80
2022-08-02T14:29:01.616Z,27.78
2022-08-02T14:31:37.895Z,27.78
2022-08-02T14:34:14.304Z,27.75
2022-08-02T14:36:53.565Z,27.69
2022-08-02T14:39:27.521Z,27.60
2022-08-02T14:42:17.677Z,27.48
2022-08-02T14:44:51.427Z,27.33
2022-08-02T14:47:25.088Z,27.23
2022-08-02T14:49:58.885Z,27.09
2022-08-02T14:52:33.967Z,26.95
2022-08-02T14:55:08.046Z,26.83
2022-08-02T14:57:41.703Z,26.72
2022-08-02T15:00:17.988Z,26.64
2022-08-02T15:02:51.644Z,26.57
2022-08-02T15:05:25.166Z,26.50
2022-08-02T15:08:00.270Z,26.41
2022-08-02T15:10:33.853Z,26.35
2022-08-02T15:13:07.675Z,26.31
2022-08-02T15:15:43.822Z,26.33
2022-08-02T15:18:17.562Z,26.30
2022-08-02T15:20:57.814Z,26.27
2022-08-02T15:23:37.575Z,26.25
2022-08-02T15:26:12.257Z,26.23
2022-08-02T15:28:45.941Z,26.25
2022-08-02T15:31:22.573Z,26.25
2022-08-02T15:34:07.498Z,26.24
2022-08-02T15:36:41.533Z,26.25
2022-08-02T15:39:16.591Z,26.31
2022-08-02T15:41:50.107Z,26.35
2022-08-02T15:44:25.081Z,26.39
2022-08-02T15:46:59.029Z,26.41
2022-08-02T15:49:32.782Z,26.38
2022-08-02T15:52:06.874Z,26.30
2022-08-02T15:54:42.045Z,26.23
2022-08-02T15:57:15.697Z,26.15
2022-08-02T15:59:49.568Z,26.06
2022-08-02T16:02:23.452Z,25.98
2022-08-02T16:04:57.233Z,25.98
2022-08-02T16:07:30.841Z,25.98
2022-08-02T16:10:06.954Z,26.03
2022-08-02T16:12:40.581Z,26.09
2022-08-02T16:15:14.310Z,26.19
2022-08-02T16:17:51.536Z,26.28
2022-08-02T16:20:28.232Z,26.37
2022-08-02T16:23:04.497Z,26.45
2022-08-02T16:25:42.101Z,26.46
2022-08-02T16:28:15.862Z,26.42
2022-08-02T16:31:04.819Z,26.37
2022-08-02T16:33:42.557Z,26.37
2022-08-02T16:36:19.601Z,26.28
2022-08-02T16:38:54.336Z,26.32
2022-08-02T16:41:50.760Z,26.37
2022-08-02T16:44:41.367Z,26.42
2022-08-02T16:47:43.575Z,26.44
2022-08-02T16:50:27.204Z,26.44
2022-08-02T16:53:07.096Z,26.41
2022-08-02T16:55:51.691Z,26.38
2022-08-02T16:58:28.330Z,26.34
2022-08-02T17:01:02.001Z,26.33
2022-08-02T17:03:55.945Z,26.30
2022-08-02T17:06:28.978Z,26.41
2022-08-02T17:09:02.450Z,26.42
2022-08-02T17:11:41.436Z,26.24
2022-08-02T17:14:20.561Z,26.18
2022-08-02T17:16:54.057Z,26.12
2022-08-02T17:19:27.693Z,26.06
2022-08-02T17:22:01.291Z,26.02
2022-08-02T17:24:34.834Z,25.98
2022-08-02T17:27:08.782Z,25.93
2022-08-02T17:29:43.820Z,25.91
2022-08-02T17:32:19.741Z,25.88
2022-08-02T17:34:59.880Z,25.84
2022-08-02T17:37:35.740Z,25.81
2022-08-02T17:40:15.873Z,25.74
2022-08-02T17:42:53.539Z,25.71
2022-08-02T17:46:00.000Z,25.65
2022-08-02T17:48:22.296Z,25.61
2022-08-02T17:51:10.761Z,25.56
2022-08-02T17:53:44.477Z,25.48
2022-08-02T17:56:23.665Z,25.41
2022-08-02T17:58:57.431Z,25.34
2022-08-02T18:01:32.652Z,25.28
2022-08-02T18:04:06.363Z,25.22
2022-08-02T18:06:40.847Z,25.16
2022-08-02T18:09:14.668Z,25.11
2022-08-02T18:11:52.524Z,25.05
2022-08-02T18:14:26.984Z,24.96
2022-08-02T18:17:04.863Z,24.90
2022-08-02T18:19:43.227Z,24.82
2022-08-02T18:22:29.042Z,24.75
2022-08-02T18:25:09.058Z,24.68
2022-08-02T18:27:43.305Z,24.60
2022-08-02T18:30:21.648Z,24.55
2022-08-02T18:34:00.517Z,24.48
2022-08-02T18:35:56.924Z,24.42
2022-08-02T18:38:31.639Z,24.36
2022-08-02T18:44:01.637Z,24.21
2022-08-02T18:46:35.211Z,24.00
2022-08-02T18:49:14.954Z,23.84
2022-08-02T18:51:49.429Z,23.75
2022-08-02T18:54:26.774Z,23.64
2022-08-02T18:58:01.800Z,23.52
2022-08-02T18:59:57.997Z,23.42
2022-08-02T19:02:31.481Z,23.34
2022-08-02T19:05:08.467Z,23.25
2022-08-02T19:07:49.815Z,23.18
2022-08-02T19:10:25.074Z,23.06
2022-08-02T19:12:58.882Z,22.99
2022-08-02T19:15:34.313Z,22.91
2022-08-02T19:18:08.325Z,22.85
2022-08-02T19:23:37.130Z,22.76
2022-08-02T19:26:28.454Z,22.79
2022-08-02T19:29:02.313Z,22.80
2022-08-02T19:31:59.961Z,22.82
2022-08-02T19:34:35.704Z,22.81
2022-08-02T19:37:11.095Z,22.79
2022-08-02T19:39:51.165Z,22.77
2022-08-02T19:42:25.194Z,22.73
2022-08-02T19:44:58.711Z,22.69
2022-08-02T19:47:38.435Z,22.67
2022-08-02T19:50:15.005Z,22.64
2022-08-02T19:52:50.005Z,22.61
2022-08-02T19:56:01.320Z,22.59
2022-08-02T19:58:20.063Z,22.56
2022-08-02T20:00:57.255Z,22.53
2022-08-02T20:03:51.104Z,22.51
2022-08-02T20:06:29.931Z,22.51
2022-08-02T20:09:05.515Z,22.48
2022-08-02T20:11:39.226Z,22.45
2022-08-02T20:14:13.583Z,22.43
2022-08-02T20:16:47.171Z,22.38
2022-08-02T20:19:23.598Z,22.35
2022-08-02T20:21:59.672Z,22.30
2022-08-02T20:24:35.431Z,22.27
2022-08-02T20:27:12.398Z,22.24
2022-08-02T20:29:49.846Z,22.21
2022-08-02T20:32:23.862Z,22.18
2022-08-02T20:34:57.672Z,21.97
2022-08-02T20:38:00.089Z,21.77
2022-08-02T20:40:26.233Z,21.67
2022-08-02T20:42:59.943Z,21.50
2022-08-02T20:45:33.727Z,21.34
2022-08-02T20:48:08.007Z,21.18
2022-08-02T20:50:52.342Z,21.10
2022-08-02T20:53:30.108Z,21.03
2022-08-02T20:56:05.535Z,20.95
2022-08-02T20:58:40.384Z,20.91
2022-08-02T21:01:13.998Z,20.89
2022-08-02T21:03:47.705Z,20.79
2022-08-02T21:06:32.159Z,20.70
2022-08-02T21:09:07.528Z,20.66
2022-08-02T21:11:43.038Z,20.66
2022-08-02T21:14:24.694Z,20.65
2022-08-02T21:16:58.985Z,20.62
2022-08-02T21:19:32.914Z,20.59
2022-08-02T21:22:06.562Z,20.57
2022-08-02T21:24:41.153Z,20.53
2022-08-02T21:27:53.164Z,20.46
2022-08-02T21:30:10.501Z,20.40
2022-08-02T21:32:44.918Z,20.35
2022-08-02T21:35:20.402Z,20.35
2022-08-02T21:37:58.181Z,20.37
2022-08-02T21:40:32.033Z,20.35
2022-08-02T21:43:08.838Z,20.35
2022-08-02T21:45:53.902Z,20.33
2022-08-02T21:48:29.397Z,20.30
2022-08-02T21:51:03.477Z,20.30
2022-08-02T21:53:42.556Z,20.32
2022-08-02T21:56:16.752Z,20.31
2022-08-02T21:58:52.325Z,20.30
2022-08-02T22:01:26.226Z,20.28
2022-08-02T22:04:03.370Z,20.26
2022-08-02T22:06:37.005Z,20.21
2022-08-02T22:12:10.141Z,20.08
2022-08-02T22:14:55.059Z,20.03
2022-08-02T22:17:46.782Z,19.99
2022-08-02T22:20:24.093Z,19.90
2022-08-02T22:22:57.740Z,19.84
2022-08-02T22:25:36.860Z,19.79
2022-08-02T22:31:08.190Z,19.72
2022-08-02T22:34:00.560Z,19.68
2022-08-02T22:36:38.733Z,19.66
2022-08-02T22:39:19.471Z,19.66
2022-08-02T22:42:05.610Z,19.66
2022-08-02T22:44:40.777Z,19.63
2022-08-02T22:47:19.286Z,19.55
2022-08-02T22:49:58.966Z,19.51
2022-08-02T22:52:33.343Z,19.47
2022-08-02T22:55:08.092Z,19.41
2022-08-02T22:57:56.431Z,19.35
2022-08-02T22:58:47.623Z,22.79
2022-08-02T22:58:59.724Z,24.28
2022-08-02T22:59:04.102Z,20.16
2022-08-02T22:59:04.975Z,19.76
2022-08-02T23:00:30.616Z,19.29
2022-08-02T23:03:06.830Z,19.23
2022-08-02T23:05:40.814Z,19.18
2022-08-02T23:08:14.536Z,19.16
2022-08-02T23:10:48.229Z,19.16
2022-08-02T23:13:26.603Z,19.16
2022-08-02T23:16:19.049Z,19.19
2022-08-02T23:19:11.333Z,19.29
2022-08-02T23:22:01.003Z,19.39
2022-08-02T23:24:35.754Z,19.48
2022-08-02T23:27:09.434Z,19.53
2022-08-02T23:29:43.052Z,19.56
2022-08-02T23:32:17.186Z,19.59
2022-08-02T23:34:52.418Z,19.60
2022-08-02T23:37:26.930Z,19.62
2022-08-02T23:40:00.479Z,19.64
2022-08-02T23:42:34.126Z,19.64
2022-08-02T23:45:08.491Z,19.64
2022-08-02T23:47:42.153Z,19.63
2022-08-02T23:50:17.380Z,19.62
2022-08-02T23:52:51.087Z,19.61
2022-08-02T23:55:24.734Z,19.60
2022-08-02T23:57:58.465Z,19.57
